Time;durP1;ratioP1;P1;durP2;ratioP2;P2;SDS_P1;SDS_P2;PMS_P1;PMS_P2;Temp;Humidity;BMP_temperature;BMP_pressure;BME280_temperature;BME280_humidity;BME280_pressure;Samples;Min_cycle;Max_cycle;Signal;HPM_P1;HPM_P2
2021/09/03 00:02:55;;;;;;;9.82;5.82;;;;;;;;;;5032530;28;20097;-67
2021/09/03 00:06:00;;;;;;;17.70;6.28;;;;;;;;;;5032587;28;20045;-68
2021/09/03 00:09:04;;;;;;;14.50;5.45;;;;;;;;;;5032554;28;20389;-68
2021/09/03 00:12:08;;;;;;;14.30;5.85;;;;;;;;;;5032544;28;20048;-68
2021/09/03 00:15:14;;;;;;;15.30;5.43;;;;;;;;;;5032454;28;20048;-68
2021/09/03 00:18:18;;;;;;;12.98;6.47;;;;;;;;;;5032598;28;20048;-68
2021/09/03 00:21:22;;;;;;;14.20;6.47;;;;;;;;;;5032255;28;20036;-67
2021/09/03 00:24:26;;;;;;;12.68;5.55;;;;;;;;;;5032101;28;20033;-68
2021/09/03 00:27:31;;;;;;;10.90;5.97;;;;;;;;;;5032134;28;20056;-67
2021/09/03 00:30:35;;;;;;;10.45;5.22;;;;;;;;;;5032275;28;20044;-68
2021/09/03 00:33:39;;;;;;;9.93;5.35;;;;;;;;;;5032027;28;20056;-68
2021/09/03 00:36:44;;;;;;;11.05;5.30;;;;;;;;;;5019790;28;20033;-67
2021/09/03 00:39:48;;;;;;;12.43;5.43;;;;;;;;;;5032305;28;20045;-68
2021/09/03 00:42:53;;;;;;;9.90;5.03;;;;;;;;;;5032109;28;20532;-68
2021/09/03 00:45:58;;;;;;;10.25;5.38;;;;;;;;;;5031801;28;20162;-67
2021/09/03 00:49:02;;;;;;;12.82;5.97;;;;;;;;;;5031806;28;20543;-68
2021/09/03 00:52:07;;;;;;;15.02;5.28;;;;;;;;;;5031608;28;20057;-68
2021/09/03 00:55:11;;;;;;;10.02;5.40;;;;;;;;;;5031597;28;20052;-68
2021/09/03 00:58:16;;;;;;;11.18;5.40;;;;;;;;;;5031703;28;20040;-67
2021/09/03 01:01:21;;;;;;;12.48;5.63;;;;;;;;;;5031570;28;20048;-68
2021/09/03 01:04:25;;;;;;;12.68;5.78;;;;;;;;;;5031555;28;20040;-68
2021/09/03 01:07:29;;;;;;;13.48;5.50;;;;;;;;;;5031546;28;20048;-68
2021/09/03 01:10:34;;;;;;;19.05;5.75;;;;;;;;;;5030805;28;20044;-68
2021/09/03 01:13:39;;;;;;;15.20;6.57;;;;;;;;;;5031263;28;20052;-68
2021/09/03 01:16:43;;;;;;;19.90;6.80;;;;;;;;;;5031545;28;20050;-68
2021/09/03 01:19:50;;;;;;;11.52;6.72;;;;;;;;;;5031315;28;20068;-67
2021/09/03 01:22:54;;;;;;;13.73;6.60;;;;;;;;;;5031231;28;20037;-68
2021/09/03 01:26:03;;;;;;;15.82;6.57;;;;;;;;;;5031211;28;20044;-67
2021/09/03 01:29:07;;;;;;;13.95;6.40;;;;;;;;;;5031072;28;20108;-68
2021/09/03 01:32:11;;;;;;;14.77;7.13;;;;;;;;;;5030925;28;20377;-68
2021/09/03 01:35:16;;;;;;;22.40;6.70;;;;;;;;;;5031154;28;20052;-68
2021/09/03 01:38:20;;;;;;;12.98;6.20;;;;;;;;;;5018936;28;20044;-67
2021/09/03 01:41:25;;;;;;;16.33;5.75;;;;;;;;;;5030717;28;20041;-68
2021/09/03 01:44:29;;;;;;;12.27;6.25;;;;;;;;;;5030544;28;20045;-67
2021/09/03 01:47:34;;;;;;;10.90;6.25;;;;;;;;;;5030983;28;20053;-68
2021/09/03 01:50:38;;;;;;;11.80;6.68;;;;;;;;;;5031046;28;20052;-68
2021/09/03 01:53:42;;;;;;;13.77;6.55;;;;;;;;;;5030408;28;20152;-67
2021/09/03 01:56:47;;;;;;;14.48;6.28;;;;;;;;;;5030714;28;20041;-67
2021/09/03 01:59:51;;;;;;;13.50;5.78;;;;;;;;;;5030848;28;20052;-68
2021/09/03 02:02:55;;;;;;;14.75;5.78;;;;;;;;;;5030616;28;20082;-67
2021/09/03 02:06:00;;;;;;;14.35;6.38;;;;;;;;;;5031115;28;20389;-67
2021/09/03 02:09:04;;;;;;;14.30;6.47;;;;;;;;;;5030618;28;20040;-67
2021/09/03 02:12:12;;;;;;;16.80;6.90;;;;;;;;;;5030511;28;20052;-68
2021/09/03 02:15:16;;;;;;;15.32;6.35;;;;;;;;;;5030867;28;20036;-68
2021/09/03 02:18:20;;;;;;;14.48;6.22;;;;;;;;;;5030687;28;20045;-67
2021/09/03 02:21:25;;;;;;;13.80;6.55;;;;;;;;;;5031780;28;20049;-67
2021/09/03 02:24:29;;;;;;;18.08;6.30;;;;;;;;;;5034820;28;20048;-67
2021/09/03 02:27:35;;;;;;;15.68;5.93;;;;;;;;;;5034476;28;20071;-68
2021/09/03 02:30:39;;;;;;;14.15;5.88;;;;;;;;;;5034588;28;20092;-67
2021/09/03 02:33:43;;;;;;;12.73;6.82;;;;;;;;;;5034152;28;20550;-68
2021/09/03 02:36:47;;;;;;;15.63;7.10;;;;;;;;;;5034270;28;20037;-68
2021/09/03 02:39:52;;;;;;;17.17;6.60;;;;;;;;;;5034073;28;20068;-68
2021/09/03 02:42:56;;;;;;;15.68;6.90;;;;;;;;;;5034035;28;20049;-68
2021/09/03 02:46:01;;;;;;;15.52;7.25;;;;;;;;;;5033945;28;20412;-67
2021/09/03 02:49:05;;;;;;;13.02;6.95;;;;;;;;;;5033974;28;20060;-68
2021/09/03 02:52:10;;;;;;;10.93;6.53;;;;;;;;;;5033903;28;20048;-67
2021/09/03 02:55:14;;;;;;;13.93;6.78;;;;;;;;;;5033898;28;20394;-67
2021/09/03 02:58:19;;;;;;;19.92;6.30;;;;;;;;;;5021537;28;20037;-68
2021/09/03 03:01:24;;;;;;;14.68;6.50;;;;;;;;;;5033864;28;20052;-68
2021/09/03 03:04:28;;;;;;;13.48;6.53;;;;;;;;;;5033645;28;20621;-68
2021/09/03 03:07:33;;;;;;;14.85;6.57;;;;;;;;;;5033713;28;20108;-68
2021/09/03 03:10:37;;;;;;;13.50;6.15;;;;;;;;;;5033714;28;20040;-67
2021/09/03 03:13:47;;;;;;;14.48;6.63;;;;;;;;;;5033453;28;20535;-67
2021/09/03 03:16:51;;;;;;;14.23;6.72;;;;;;;;;;5033726;28;20053;-67
2021/09/03 03:19:55;;;;;;;13.38;6.22;;;;;;;;;;5033425;28;20397;-67
2021/09/03 03:22:59;;;;;;;11.63;6.20;;;;;;;;;;5033323;28;20499;-68
2021/09/03 03:26:04;;;;;;;11.10;5.72;;;;;;;;;;5021036;28;20424;-68
2021/09/03 03:29:09;;;;;;;10.63;6.18;;;;;;;;;;5033252;28;20056;-68
2021/09/03 03:32:14;;;;;;;22.02;6.32;;;;;;;;;;5033154;28;20053;-67
2021/09/03 03:35:18;;;;;;;15.98;6.32;;;;;;;;;;5033231;28;20060;-68
2021/09/03 03:38:22;;;;;;;15.32;6.00;;;;;;;;;;5033176;28;20041;-68
2021/09/03 03:41:26;;;;;;;19.17;6.40;;;;;;;;;;5032988;28;20048;-68
2021/09/03 03:44:31;;;;;;;10.35;6.28;;;;;;;;;;5032736;28;20527;-68
2021/09/03 03:47:36;;;;;;;15.35;6.32;;;;;;;;;;5033003;28;20056;-67
2021/09/03 03:50:40;;;;;;;22.50;13.85;;;;;;;;;;5032875;28;20040;-67
2021/09/03 03:53:45;;;;;;;19.48;10.95;;;;;;;;;;5032700;28;20049;-67
2021/09/03 03:56:49;;;;;;;18.98;8.13;;;;;;;;;;5032826;28;20099;-67
2021/09/03 03:59:53;;;;;;;13.15;6.15;;;;;;;;;;5032696;28;20044;-67
2021/09/03 04:02:57;;;;;;;17.20;6.50;;;;;;;;;;5032551;28;20060;-67
2021/09/03 04:06:02;;;;;;;17.00;7.78;;;;;;;;;;5032611;28;20040;-67
2021/09/03 04:09:06;;;;;;;14.55;8.02;;;;;;;;;;5032425;28;20056;-69
2021/09/03 04:12:11;;;;;;;20.10;11.00;;;;;;;;;;5032294;28;20523;-68
2021/09/03 04:15:15;;;;;;;16.80;9.52;;;;;;;;;;5032507;28;20045;-67
2021/09/03 04:18:19;;;;;;;18.35;9.40;;;;;;;;;;5032302;28;20662;-68
2021/09/03 04:21:23;;;;;;;15.25;8.35;;;;;;;;;;5032190;28;20040;-68
2021/09/03 04:24:27;;;;;;;14.35;7.32;;;;;;;;;;5032144;28;20044;-68
2021/09/03 04:27:32;;;;;;;14.68;7.60;;;;;;;;;;5031959;28;20197;-68
2021/09/03 04:30:36;;;;;;;25.02;7.40;;;;;;;;;;5032080;28;20539;-68
2021/09/03 04:33:40;;;;;;;22.60;12.75;;;;;;;;;;5031690;28;20068;-68
2021/09/03 04:36:45;;;;;;;35.50;14.95;;;;;;;;;;5031965;28;20060;-68
2021/09/03 04:39:49;;;;;;;49.00;16.88;;;;;;;;;;5031922;28;20511;-68
2021/09/03 04:42:54;;;;;;;35.78;16.15;;;;;;;;;;5031772;28;20044;-68
2021/09/03 04:45:58;;;;;;;48.47;21.30;;;;;;;;;;5031551;28;20071;-68
2021/09/03 04:49:02;;;;;;;46.42;23.20;;;;;;;;;;5031804;28;20040;-68
2021/09/03 04:52:07;;;;;;;73.97;37.17;;;;;;;;;;5031752;28;20098;-68
2021/09/03 04:55:11;;;;;;;73.30;36.40;;;;;;;;;;5031510;28;20511;-68
2021/09/03 04:58:15;;;;;;;186.13;89.32;;;;;;;;;;5031318;28;20040;-68
2021/09/03 05:01:19;;;;;;;225.10;117.05;;;;;;;;;;5019279;28;20140;-68
2021/09/03 05:04:24;;;;;;;420.95;211.93;;;;;;;;;;5031164;28;20048;-68
2021/09/03 05:07:28;;;;;;;383.33;196.52;;;;;;;;;;5031179;28;20044;-68
2021/09/03 05:10:33;;;;;;;205.98;102.38;;;;;;;;;;5031222;28;20048;-68
2021/09/03 05:13:37;;;;;;;89.88;43.97;;;;;;;;;;5031078;28;20053;-68
2021/09/03 05:16:42;;;;;;;61.55;22.48;;;;;;;;;;5031108;28;20056;-68
2021/09/03 05:19:46;;;;;;;34.78;14.93;;;;;;;;;;5030895;28;20048;-68
2021/09/03 05:22:51;;;;;;;43.72;17.38;;;;;;;;;;5030983;28;20052;-68
2021/09/03 05:25:55;;;;;;;37.17;17.42;;;;;;;;;;5031000;28;20056;-68
2021/09/03 05:28:59;;;;;;;49.97;20.40;;;;;;;;;;5031255;28;20045;-68
2021/09/03 05:32:04;;;;;;;49.45;19.60;;;;;;;;;;5031157;28;20052;-68
2021/09/03 05:35:08;;;;;;;44.03;20.75;;;;;;;;;;5031080;28;20044;-68
2021/09/03 05:38:12;;;;;;;49.58;19.17;;;;;;;;;;5031189;28;20037;-68
2021/09/03 05:41:17;;;;;;;37.10;20.67;;;;;;;;;;5031108;28;20401;-68
2021/09/03 05:44:21;;;;;;;50.85;20.27;;;;;;;;;;5031020;28;20052;-68
2021/09/03 05:47:25;;;;;;;42.80;13.70;;;;;;;;;;5030985;28;20412;-68
2021/09/03 05:50:30;;;;;;;39.50;16.42;;;;;;;;;;5030975;28;20048;-72
2021/09/03 05:53:34;;;;;;;41.22;21.23;;;;;;;;;;5030820;28;20404;-71
2021/09/03 05:56:39;;;;;;;42.50;19.67;;;;;;;;;;5030672;28;20048;-72
2021/09/03 05:59:43;;;;;;;47.55;18.92;;;;;;;;;;5018543;28;20044;-71
2021/09/03 06:02:47;;;;;;;37.85;17.38;;;;;;;;;;5030429;28;20393;-72
2021/09/03 06:05:52;;;;;;;36.28;15.05;;;;;;;;;;5030632;28;20048;-72
2021/09/03 06:08:56;;;;;;;33.10;14.15;;;;;;;;;;5030679;28;20041;-72
2021/09/03 06:12:00;;;;;;;37.88;14.63;;;;;;;;;;5030590;28;20044;-72
2021/09/03 06:15:06;;;;;;;43.42;14.60;;;;;;;;;;5030592;28;20523;-71
2021/09/03 06:18:11;;;;;;;51.95;16.05;;;;;;;;;;5030527;28;20524;-72
2021/09/03 06:21:16;;;;;;;46.90;13.00;;;;;;;;;;5030653;28;20045;-72
2021/09/03 06:24:53;;;;;;;61.33;15.98;;;;;;;;;;5030303;28;20077;-74
2021/09/03 06:27:50;;;;;;;33.17;10.65;;;;;;;;;;5030882;28;20540;-72
2021/09/03 06:30:55;;;;;;;29.70;10.55;;;;;;;;;;5030503;28;20044;-71
2021/09/03 06:33:59;;;;;;;25.27;11.00;;;;;;;;;;5030485;28;20053;-70
2021/09/03 06:37:04;;;;;;;30.85;11.73;;;;;;;;;;5030385;28;20044;-71
2021/09/03 06:40:08;;;;;;;26.88;10.63;;;;;;;;;;5030175;28;20048;-73
2021/09/03 06:43:13;;;;;;;25.25;10.43;;;;;;;;;;5018763;28;20048;-73
2021/09/03 06:46:18;;;;;;;23.10;9.57;;;;;;;;;;5018132;28;20061;-72
2021/09/03 06:49:22;;;;;;;20.23;8.75;;;;;;;;;;5030229;28;20049;-71
2021/09/03 06:52:30;;;;;;;23.67;8.85;;;;;;;;;;5030638;28;20048;-70
2021/09/03 06:55:34;;;;;;;19.15;9.55;;;;;;;;;;5030307;28;20401;-72
2021/09/03 06:58:38;;;;;;;20.73;8.48;;;;;;;;;;5030253;28;20057;-70
2021/09/03 07:01:42;;;;;;;22.63;10.07;;;;;;;;;;5016586;28;20224;-70
2021/09/03 07:04:47;;;;;;;20.30;10.48;;;;;;;;;;5030211;28;20519;-69
2021/09/03 07:07:51;;;;;;;19.02;8.02;;;;;;;;;;5029956;28;20048;-71
2021/09/03 07:10:56;;;;;;;29.63;9.85;;;;;;;;;;5033565;28;20045;-73
2021/09/03 07:14:00;;;;;;;34.70;9.77;;;;;;;;;;5021332;28;20049;-72
2021/09/03 07:17:06;;;;;;;33.72;12.15;;;;;;;;;;5033638;28;20044;-70
2021/09/03 07:20:12;;;;;;;36.33;12.90;;;;;;;;;;5033580;28;20044;-71
2021/09/03 07:23:16;;;;;;;30.40;10.15;;;;;;;;;;5033404;28;20394;-71
2021/09/03 07:26:20;;;;;;;28.70;9.07;;;;;;;;;;5033448;28;20052;-72
2021/09/03 07:29:25;;;;;;;33.45;9.35;;;;;;;;;;5033423;28;20484;-71
2021/09/03 07:32:29;;;;;;;26.77;8.77;;;;;;;;;;5032914;28;20045;-71
2021/09/03 07:35:33;;;;;;;28.35;8.55;;;;;;;;;;5033227;28;20547;-74
2021/09/03 07:38:38;;;;;;;23.50;7.90;;;;;;;;;;5020848;28;20045;-72
2021/09/03 07:41:43;;;;;;;26.55;7.63;;;;;;;;;;5033211;28;20052;-71
2021/09/03 07:44:47;;;;;;;17.88;7.60;;;;;;;;;;5032809;28;20056;-72
2021/09/03 07:47:52;;;;;;;24.40;7.22;;;;;;;;;;5033142;28;20060;-71
2021/09/03 07:50:56;;;;;;;27.73;7.45;;;;;;;;;;5033053;28;20046;-71
2021/09/03 07:54:00;;;;;;;28.73;8.57;;;;;;;;;;5032742;28;20061;-70
2021/09/03 07:57:04;;;;;;;16.52;6.82;;;;;;;;;;5032573;28;20045;-67
2021/09/03 08:00:09;;;;;;;20.00;6.80;;;;;;;;;;5032586;28;20052;-68
2021/09/03 08:03:13;;;;;;;22.40;7.10;;;;;;;;;;5032500;28;20049;-67
2021/09/03 08:06:17;;;;;;;19.00;7.53;;;;;;;;;;5032679;28;20555;-68
2021/09/03 08:09:21;;;;;;;21.13;7.72;;;;;;;;;;5032215;28;20062;-68
2021/09/03 08:12:26;;;;;;;20.25;6.90;;;;;;;;;;5031193;28;20048;-68
2021/09/03 08:15:31;;;;;;;17.88;7.88;;;;;;;;;;5032235;28;20056;-68
2021/09/03 08:18:35;;;;;;;19.00;7.38;;;;;;;;;;5032173;28;20049;-68
2021/09/03 08:21:40;;;;;;;16.58;8.27;;;;;;;;;;5032697;28;20053;-68
2021/09/03 08:24:44;;;;;;;16.67;7.15;;;;;;;;;;5032646;28;20072;-68
2021/09/03 08:27:49;;;;;;;13.52;6.35;;;;;;;;;;5032410;28;20040;-68
2021/09/03 08:30:53;;;;;;;11.25;6.10;;;;;;;;;;5032142;28;20045;-68
2021/09/03 08:33:57;;;;;;;13.48;5.95;;;;;;;;;;5031936;28;20120;-68
2021/09/03 08:37:02;;;;;;;12.20;5.88;;;;;;;;;;5031745;28;20068;-68
2021/09/03 08:40:07;;;;;;;12.63;6.22;;;;;;;;;;5031717;28;20609;-68
2021/09/03 08:43:12;;;;;;;15.77;5.93;;;;;;;;;;5031616;28;20103;-68
2021/09/03 08:46:16;;;;;;;16.15;5.97;;;;;;;;;;5031726;28;20054;-68
2021/09/03 08:49:21;;;;;;;15.73;5.53;;;;;;;;;;5032095;28;20052;-68
2021/09/03 08:52:25;;;;;;;19.08;6.25;;;;;;;;;;5031800;28;20044;-68
2021/09/03 08:55:30;;;;;;;17.30;5.93;;;;;;;;;;5031646;28;20061;-68
2021/09/03 08:58:35;;;;;;;9.30;5.20;;;;;;;;;;5031552;28;20052;-68
2021/09/03 09:01:39;;;;;;;13.55;4.88;;;;;;;;;;5031742;28;20038;-68
2021/09/03 09:04:45;;;;;;;9.60;4.95;;;;;;;;;;5031825;28;20040;-69
2021/09/03 09:08:06;;;;;;;18.02;5.97;;;;;;;;;;5031484;28;20042;-69
2021/09/03 09:11:16;;;;;;;11.90;5.80;;;;;;;;;;5031315;28;20041;-69
2021/09/03 09:14:20;;;;;;;14.82;6.82;;;;;;;;;;5031292;28;20056;-69
2021/09/03 09:17:36;;;;;;;12.02;6.10;;;;;;;;;;5019393;28;20492;-71
2021/09/03 09:20:41;;;;;;;11.27;5.25;;;;;;;;;;5030917;28;20060;-69
2021/09/03 09:23:52;;;;;;;16.45;5.18;;;;;;;;;;5031126;28;20042;-70
2021/09/03 09:26:57;;;;;;;10.43;4.82;;;;;;;;;;5031442;28;20512;-72
2021/09/03 09:30:17;;;;;;;13.55;5.00;;;;;;;;;;5030901;28;20044;-72
2021/09/03 09:33:23;;;;;;;17.55;5.45;;;;;;;;;;5018793;28;20086;-72
2021/09/03 09:36:33;;;;;;;435.98;32.00;;;;;;;;;;5030912;28;20044;-68
2021/09/03 09:39:57;;;;;;;16.77;5.22;;;;;;;;;;5030972;28;20040;-70
2021/09/03 09:43:01;;;;;;;480.92;39.80;;;;;;;;;;5030838;28;20040;-70
2021/09/03 09:46:10;;;;;;;23.98;5.88;;;;;;;;;;5029613;28;20057;-68
2021/09/03 09:49:15;;;;;;;12.45;5.13;;;;;;;;;;5031023;28;20037;-68
2021/09/03 09:52:33;;;;;;;18.73;5.47;;;;;;;;;;5030072;28;20074;-68
2021/09/03 09:55:44;;;;;;;48.38;7.30;;;;;;;;;;5030054;28;20064;-68
2021/09/03 09:58:52;;;;;;;22.80;5.60;;;;;;;;;;5030577;28;20044;-71
2021/09/03 10:01:58;;;;;;;14.00;5.40;;;;;;;;;;5030654;28;20049;-68
2021/09/03 10:05:04;;;;;;;24.60;5.22;;;;;;;;;;5030695;28;20040;-70
2021/09/03 10:08:09;;;;;;;11.88;4.85;;;;;;;;;;5030380;28;20057;-71
2021/09/03 10:11:17;;;;;;;11.90;4.70;;;;;;;;;;5030328;28;20045;-69
2021/09/03 10:14:23;;;;;;;7.63;4.53;;;;;;;;;;5030375;28;20061;-71
2021/09/03 10:17:28;;;;;;;18.08;5.75;;;;;;;;;;5030439;28;20034;-71
2021/09/03 10:20:32;;;;;;;9.15;4.22;;;;;;;;;;5029243;28;20049;-71
2021/09/03 10:23:49;;;;;;;13.93;4.60;;;;;;;;;;5030408;28;20438;-71
2021/09/03 10:26:55;;;;;;;11.65;5.18;;;;;;;;;;5030674;28;20045;-71
2021/09/03 10:30:20;;;;;;;9.32;4.40;;;;;;;;;;5030315;28;20040;-71
2021/09/03 10:33:33;;;;;;;14.40;4.70;;;;;;;;;;5030079;28;20045;-71
2021/09/03 10:37:10;;;;;;;13.35;4.90;;;;;;;;;;5030384;28;20048;-72
2021/09/03 10:40:21;;;;;;;8.85;5.38;;;;;;;;;;5007629;28;20405;-71
2021/09/03 10:43:25;;;;;;;;;;;;;;;;;;5021274;28;20037;-71
2021/09/03 10:46:29;;;;;;;15.80;5.85;;;;;;;;;;5022128;28;19944;-71
2021/09/03 10:49:37;;;;;;;11.30;4.40;;;;;;;;;;5022276;28;20045;-71
2021/09/03 10:53:01;;;;;;;8.80;4.20;;;;;;;;;;5034397;28;20096;-70
2021/09/03 10:56:12;;;;;;;20.77;7.35;;;;;;;;;;5022065;28;20045;-71
2021/09/03 10:59:17;;;;;;;18.58;5.15;;;;;;;;;;5033843;28;20045;-72
2021/09/03 11:02:27;;;;;;;12.65;5.20;;;;;;;;;;5033950;28;20052;-71
2021/09/03 11:05:35;;;;;;;13.88;4.88;;;;;;;;;;5033843;28;20052;-71
2021/09/03 11:08:42;;;;;;;9.27;5.45;;;;;;;;;;5032508;28;20444;-71
2021/09/03 11:11:48;;;;;;;10.63;5.00;;;;;;;;;;5031780;28;20033;-68
2021/09/03 11:14:55;;;;;;;10.85;5.22;;;;;;;;;;5031683;28;20520;-69
2021/09/03 11:18:09;;;;;;;11.38;5.13;;;;;;;;;;5031758;28;20052;-69
2021/09/03 11:21:13;;;;;;;13.32;5.22;;;;;;;;;;5032794;28;20044;-72
2021/09/03 11:24:20;;;;;;;7.95;4.50;;;;;;;;;;5033490;28;20049;-71
2021/09/03 11:27:27;;;;;;;9.85;4.45;;;;;;;;;;5033919;28;20046;-71
2021/09/03 11:30:31;;;;;;;8.55;4.93;;;;;;;;;;5033516;28;20037;-70
2021/09/03 11:33:35;;;;;;;5.68;4.20;;;;;;;;;;5021381;28;20033;-71
2021/09/03 11:36:47;;;;;;;10.35;5.10;;;;;;;;;;5033125;28;20049;-71
2021/09/03 11:39:53;;;;;;;7.22;3.67;;;;;;;;;;5033433;28;20251;-71
2021/09/03 11:42:57;;;;;;;8.48;4.30;;;;;;;;;;5033200;28;20037;-70
2021/09/03 11:46:14;;;;;;;11.57;4.78;;;;;;;;;;5033056;28;20049;-70
2021/09/03 11:49:22;;;;;;;8.85;4.65;;;;;;;;;;5021361;28;20048;-71
2021/09/03 11:52:27;;;;;;;11.30;5.97;;;;;;;;;;5033437;28;20033;-70
2021/09/03 11:55:39;;;;;;;8.40;4.93;;;;;;;;;;5020435;28;20064;-70
2021/09/03 11:58:53;;;;;;;8.32;4.72;;;;;;;;;;5032959;28;20038;-70
2021/09/03 12:02:02;;;;;;;9.65;4.82;;;;;;;;;;5032766;28;20041;-70
2021/09/03 12:05:09;;;;;;;9.93;5.20;;;;;;;;;;5033115;28;20033;-70
2021/09/03 12:08:13;;;;;;;11.27;4.80;;;;;;;;;;5033006;28;20037;-70
2021/09/03 12:11:23;;;;;;;7.72;4.35;;;;;;;;;;5032719;28;20045;-70
2021/09/03 12:14:27;;;;;;;10.07;5.25;;;;;;;;;;5032617;28;20049;-71
2021/09/03 12:17:35;;;;;;;15.65;5.55;;;;;;;;;;5032869;28;20048;-72
2021/09/03 12:20:47;;;;;;;12.10;5.10;;;;;;;;;;5032618;28;20044;-70
2021/09/03 12:23:54;;;;;;;10.13;5.22;;;;;;;;;;5032242;28;20065;-71
2021/09/03 12:26:58;;;;;;;9.15;5.03;;;;;;;;;;5032391;28;20040;-71
2021/09/03 12:30:10;;;;;;;15.35;5.40;;;;;;;;;;5032711;28;20033;-71
2021/09/03 12:33:23;;;;;;;9.18;4.90;;;;;;;;;;5032386;28;20052;-71
2021/09/03 12:36:29;;;;;;;7.93;5.00;;;;;;;;;;5031847;28;20488;-68
2021/09/03 12:39:34;;;;;;;16.20;6.45;;;;;;;;;;5019889;28;20046;-69
2021/09/03 12:42:40;;;;;;;12.75;5.78;;;;;;;;;;5032374;28;20068;-70
2021/09/03 12:45:45;;;;;;;13.20;5.43;;;;;;;;;;5032072;28;20409;-72
2021/09/03 12:49:09;;;;;;;13.82;5.45;;;;;;;;;;5032046;28;20056;-72
2021/09/03 12:52:15;;;;;;;19.30;6.47;;;;;;;;;;5031821;28;20044;-72
2021/09/03 12:55:20;;;;;;;19.92;5.63;;;;;;;;;;5031732;28;20524;-72
2021/09/03 12:58:24;;;;;;;14.70;5.10;;;;;;;;;;5031657;28;20048;-70
2021/09/03 13:01:28;;;;;;;14.30;4.93;;;;;;;;;;5031925;28;20044;-72
2021/09/03 13:04:33;;;;;;;16.98;5.78;;;;;;;;;;5031615;28;20040;-72
2021/09/03 13:07:38;;;;;;;11.60;5.00;;;;;;;;;;5031645;28;20112;-73
2021/09/03 13:10:42;;;;;;;11.13;5.00;;;;;;;;;;5019828;28;20060;-70
2021/09/03 13:13:48;;;;;;;16.42;4.95;;;;;;;;;;5031434;28;20048;-71
2021/09/03 13:16:53;;;;;;;13.32;5.75;;;;;;;;;;5031894;28;20064;-71
2021/09/03 13:19:57;;;;;;;9.07;4.85;;;;;;;;;;5019644;28;20064;-70
2021/09/03 13:23:02;;;;;;;13.05;5.10;;;;;;;;;;5031486;28;20045;-68
2021/09/03 13:26:06;;;;;;;11.15;5.07;;;;;;;;;;5031327;28;20044;-68
2021/09/03 13:29:11;;;;;;;17.42;5.72;;;;;;;;;;5031570;28;20044;-68
2021/09/03 13:32:15;;;;;;;17.42;5.03;;;;;;;;;;5030708;28;20042;-69
2021/09/03 13:35:19;;;;;;;14.52;5.30;;;;;;;;;;5030307;28;20060;-67
2021/09/03 13:38:23;;;;;;;12.40;5.22;;;;;;;;;;5031039;28;20048;-68
2021/09/03 13:41:29;;;;;;;9.80;4.65;;;;;;;;;;5030939;28;20048;-71
2021/09/03 13:44:33;;;;;;;11.35;5.28;;;;;;;;;;5030655;28;20612;-69
2021/09/03 13:47:37;;;;;;;13.85;5.32;;;;;;;;;;5031153;28;20076;-71
2021/09/03 13:50:42;;;;;;;14.55;5.60;;;;;;;;;;5031198;28;20040;-70
2021/09/03 13:53:46;;;;;;;16.20;6.03;;;;;;;;;;5030710;28;20396;-69
2021/09/03 13:56:50;;;;;;;14.13;5.22;;;;;;;;;;5030889;28;20499;-67
2021/09/03 13:59:55;;;;;;;15.88;5.70;;;;;;;;;;5030949;28;20040;-68
2021/09/03 14:02:59;;;;;;;11.70;5.82;;;;;;;;;;5030616;28;20048;-68
2021/09/03 14:06:03;;;;;;;10.35;5.50;;;;;;;;;;5030872;28;20040;-70
2021/09/03 14:09:07;;;;;;;37.97;20.73;;;;;;;;;;5030865;28;20045;-71
2021/09/03 14:12:12;;;;;;;55.60;11.90;;;;;;;;;;5030705;28;20045;-68
2021/09/03 14:15:16;;;;;;;38.08;6.72;;;;;;;;;;5030794;28;20068;-69
2021/09/03 14:18:20;;;;;;;40.38;7.05;;;;;;;;;;5033633;28;20044;-68
2021/09/03 14:21:25;;;;;;;22.83;6.18;;;;;;;;;;5022519;28;20116;-69
2021/09/03 14:24:29;;;;;;;19.25;5.30;;;;;;;;;;5034786;28;20048;-68
2021/09/03 14:27:33;;;;;;;12.93;5.70;;;;;;;;;;5034730;28;20045;-68
2021/09/03 14:30:38;;;;;;;13.73;5.00;;;;;;;;;;5034582;28;20075;-68
2021/09/03 14:33:42;;;;;;;8.60;4.70;;;;;;;;;;5034222;28;20040;-69
2021/09/03 14:36:48;;;;;;;17.30;6.07;;;;;;;;;;5034536;28;20377;-69
2021/09/03 14:39:53;;;;;;;8.88;5.10;;;;;;;;;;5034422;28;20045;-69
2021/09/03 14:42:57;;;;;;;13.63;4.60;;;;;;;;;;5034191;28;20554;-67
2021/09/03 14:46:02;;;;;;;20.30;4.93;;;;;;;;;;5034298;28;20158;-70
2021/09/03 14:49:10;;;;;;;12.52;5.50;;;;;;;;;;5034087;28;20048;-69
2021/09/03 14:52:14;;;;;;;11.88;4.93;;;;;;;;;;5034028;28;20070;-72
2021/09/03 14:55:18;;;;;;;13.52;4.47;;;;;;;;;;5034232;28;20052;-72
2021/09/03 14:58:22;;;;;;;14.95;4.68;;;;;;;;;;5034118;28;20045;-68
2021/09/03 15:01:27;;;;;;;10.07;4.50;;;;;;;;;;5033616;28;20052;-70
2021/09/03 15:04:31;;;;;;;25.92;4.72;;;;;;;;;;5033912;28;20048;-68
2021/09/03 15:07:36;;;;;;;15.27;5.10;;;;;;;;;;5033636;28;20049;-69
2021/09/03 15:10:40;;;;;;;14.45;4.45;;;;;;;;;;5033307;28;20401;-69
2021/09/03 15:13:45;;;;;;;9.82;4.60;;;;;;;;;;5033624;28;20160;-69
2021/09/03 15:16:50;;;;;;;8.95;4.20;;;;;;;;;;5033682;28;20041;-68
2021/09/03 15:19:55;;;;;;;9.60;4.28;;;;;;;;;;5033429;28;20469;-70
2021/09/03 15:22:59;;;;;;;15.70;4.78;;;;;;;;;;5033436;28;20140;-68
2021/09/03 15:26:04;;;;;;;9.73;4.13;;;;;;;;;;5033470;28;20044;-70
2021/09/03 15:29:08;;;;;;;10.18;3.88;;;;;;;;;;5032005;28;20042;-69
2021/09/03 15:32:13;;;;;;;13.98;4.60;;;;;;;;;;5033263;28;20048;-69
2021/09/03 15:35:17;;;;;;;18.27;4.75;;;;;;;;;;5033190;28;20052;-69
2021/09/03 15:38:22;;;;;;;8.60;4.28;;;;;;;;;;5033121;28;20049;-70
2021/09/03 15:41:26;;;;;;;11.38;4.20;;;;;;;;;;5032940;28;20386;-69
2021/09/03 15:44:31;;;;;;;11.02;4.63;;;;;;;;;;5032920;28;20052;-70
2021/09/03 15:47:35;;;;;;;10.15;4.20;;;;;;;;;;5032982;28;20033;-70
2021/09/03 15:50:44;;;;;;;13.00;4.35;;;;;;;;;;5033237;28;20045;-69
2021/09/03 15:53:49;;;;;;;14.18;4.30;;;;;;;;;;5032661;28;20045;-68
2021/09/03 15:56:53;;;;;;;15.10;4.70;;;;;;;;;;5032567;28;20045;-68
2021/09/03 15:59:57;;;;;;;14.93;4.97;;;;;;;;;;5032619;28;20036;-68
2021/09/03 16:03:01;;;;;;;11.25;4.43;;;;;;;;;;5032554;28;20050;-68
2021/09/03 16:06:10;;;;;;;13.25;4.10;;;;;;;;;;5032495;28;20472;-69
2021/09/03 16:09:14;;;;;;;10.75;4.57;;;;;;;;;;5032235;28;20686;-69
2021/09/03 16:12:19;;;;;;;8.38;4.20;;;;;;;;;;5032300;28;20052;-70
2021/09/03 16:15:24;;;;;;;14.25;4.65;;;;;;;;;;5032265;28;20053;-65
2021/09/03 16:18:28;;;;;;;13.73;4.20;;;;;;;;;;5032301;28;20044;-69
2021/09/03 16:21:32;;;;;;;7.15;4.43;;;;;;;;;;5032417;28;20070;-66
2021/09/03 16:24:37;;;;;;;10.18;4.50;;;;;;;;;;5032191;28;20037;-68
2021/09/03 16:27:41;;;;;;;10.98;4.82;;;;;;;;;;5032204;28;20052;-70
2021/09/03 16:30:45;;;;;;;10.32;3.95;;;;;;;;;;5032018;28;20037;-70
2021/09/03 16:33:52;;;;;;;15.07;5.10;;;;;;;;;;5032088;28;20053;-67
2021/09/03 16:36:56;;;;;;;10.40;5.07;;;;;;;;;;5031709;28;20052;-73
2021/09/03 16:40:01;;;;;;;12.98;5.85;;;;;;;;;;5031303;28;20045;-69
2021/09/03 16:43:05;;;;;;;13.38;5.30;;;;;;;;;;5031716;28;20056;-68
2021/09/03 16:46:09;;;;;;;10.82;4.55;;;;;;;;;;5019004;28;20057;-68
2021/09/03 16:49:14;;;;;;;11.23;5.00;;;;;;;;;;5031924;28;20045;-68
2021/09/03 16:52:18;;;;;;;13.10;5.43;;;;;;;;;;5031189;28;20045;-68
2021/09/03 16:55:23;;;;;;;10.95;5.25;;;;;;;;;;5031526;28;20052;-69
2021/09/03 16:58:27;;;;;;;24.73;6.40;;;;;;;;;;5031520;28;20508;-69
2021/09/03 17:01:31;;;;;;;25.27;6.45;;;;;;;;;;5019031;28;20053;-69
2021/09/03 17:04:36;;;;;;;17.10;7.10;;;;;;;;;;5031422;28;20079;-69
2021/09/03 17:07:40;;;;;;;23.08;8.38;;;;;;;;;;5031232;28;20548;-69
2021/09/03 17:10:45;;;;;;;14.60;8.73;;;;;;;;;;5031124;28;20040;-70
2021/09/03 17:13:52;;;;;;;18.08;7.20;;;;;;;;;;5019303;28;20112;-69
2021/09/03 17:16:56;;;;;;;11.85;5.40;;;;;;;;;;5031385;28;20048;-69
2021/09/03 17:20:00;;;;;;;17.88;6.05;;;;;;;;;;5031266;28;20060;-69
2021/09/03 17:23:05;;;;;;;16.88;5.35;;;;;;;;;;5031105;28;20033;-69
2021/09/03 17:26:14;;;;;;;9.20;5.15;;;;;;;;;;5030941;28;20056;-69
2021/09/03 17:29:19;;;;;;;19.02;5.35;;;;;;;;;;5031294;28;20042;-69
2021/09/03 17:32:23;;;;;;;13.52;5.00;;;;;;;;;;5030707;28;20044;-69
2021/09/03 17:35:27;;;;;;;15.07;5.15;;;;;;;;;;5030559;28;20052;-69
2021/09/03 17:38:33;;;;;;;20.98;5.75;;;;;;;;;;5030720;28;20046;-69
2021/09/03 17:41:38;;;;;;;15.15;5.20;;;;;;;;;;5030979;28;20057;-69
2021/09/03 17:44:43;;;;;;;27.88;6.30;;;;;;;;;;5030642;28;20060;-66
2021/09/03 17:47:47;;;;;;;27.38;6.53;;;;;;;;;;5031007;28;20052;-67
2021/09/03 17:50:51;;;;;;;15.57;5.72;;;;;;;;;;5030847;28;20377;-67
2021/09/03 17:53:56;;;;;;;16.55;5.95;;;;;;;;;;5030490;28;20044;-67
2021/09/03 17:57:03;;;;;;;16.88;5.70;;;;;;;;;;5030625;28;20052;-67
2021/09/03 18:00:08;;;;;;;16.23;6.07;;;;;;;;;;5030517;28;20044;-67
2021/09/03 18:03:21;;;;;;;13.48;5.35;;;;;;;;;;5030730;28;20048;-67
2021/09/03 18:06:27;;;;;;;16.42;5.72;;;;;;;;;;5030715;28;20072;-67
2021/09/03 18:09:31;;;;;;;20.95;6.40;;;;;;;;;;5030547;28;20469;-67
2021/09/03 18:12:35;;;;;;;19.58;6.65;;;;;;;;;;5030000;28;20060;-67
2021/09/03 18:15:40;;;;;;;15.43;6.25;;;;;;;;;;5030267;28;20056;-67